Oliver Schäfer

Recruteur en chef - Bayer Leverkusen
4 Sept 2027
Samedi
Processus

Personnalité

Adaptabilité (12) Ambition (16) Controverse (12) Loyauté (3) Pression (5) Professionnalisme (14) Sportivité (11) Tempérament (16)

Profil

Style d'entraînement Démocratique
Diplôme Continental Pro
Détermination 10
Gestion des joueurs 14
Motivation 8
Discipline 11
Satisfaction professionnelle
76%
Fatigue
0%
Rôle Recruteur en chef
Salaire 50.3K p/s
Contrat 14.03.2030

Performance

Comportement Bon
Efficacité de l'entraînement
41%
Développement des joueurs
80%
Prévention des blessures
40%
Mise en place tactique
80%

Événements récents

A évalué un joueur maintenant
A participé à une réunion de recrutement maintenant
A participé à une réunion de recrutement maintenant
A recommandé une cible de transfert maintenant
A recommandé une cible de transfert maintenant
A recommandé une cible de transfert maintenant
A recommandé une cible de transfert maintenant
A évalué un joueur maintenant

Suivi en cours

187
Joueur Club Statut Capacité Confiance Observé Dernière observation Dernier vote
Leny Yoro Monaco Actif 153 / 154 40% 8 03.09.2027 -
Ayyoub Bouaddi Blackpool Actif 142 / 154 40% 2 03.09.2027 -
Corsin Konietzke St. Gallen Actif 118 / 122 40% 1 03.09.2027 -
Matias Siltanen Malmo FF Actif 118 / 128 40% 3 02.09.2027 -
Kosta Nedeljković Aston Villa Actif 133 / 141 40% 2 02.09.2027 -
Jonas Harder Basel Actif 118 / 121 40% 2 02.09.2027 -
Biel La Equidad Actif 121 / 122 40% 1 01.09.2027 -
Taylan Bulut Basaksehir Actif 128 / 135 40% 4 30.08.2027 -
Dejan Radonjić Red Bull Salzburg Actif 117 / 125 40% 1 30.08.2027 -
Agustín Medina Lanús Actif 122 / 129 40% 1 30.08.2027 -
Khalid Abdulrahman Al Shabab Actif 156 / 143 40% 1 30.08.2027 -
Brais Méndez Columbus Crew Actif 154 / 148 40% 1 30.08.2027 -
Pedro Malheiro Al Wasl Actif 137 / 143 40% 1 30.08.2027 -
Mbekezeli Mbokazi Chicago Fire Actif 129 / 125 40% 2 28.08.2027 -
Warren Zaïre-Emery Paris Saint-Germain Actif 154 / 165 40% 5 27.08.2027 -
Lucas Bergvall Tottenham Actif 144 / 153 40% 2 27.08.2027 -
Juan Manuel Villalba Boca Juniors Actif 110 / 121 40% 1 27.08.2027 -
Luis Díaz Bayern Munich Actif 163 / 164 40% 8 24.08.2027 -
Ousmane Dembélé Paris Saint-Germain Actif 189 / 185 40% 1 24.08.2027 -
Ritsu Doan Gamba Osaka Perdu 150 / 148 40% 1 24.08.2027 -
Andrej Bačanin Grasshopper Actif 111 / 119 40% 1 24.08.2027 -
Joey Veerman Borussia Dortmund Actif 155 / 153 40% 1 22.08.2027 -
Benjamin Henrichs RB Leipzig Actif 157 / 152 40% 1 22.08.2027 -
Joane Gadou Köln Actif 132 / 137 40% 1 22.08.2027 -
Felix Nmecha Borussia Dortmund Actif 171 / 165 40% 4 20.08.2027 -
Luiz Henrique VfB Stuttgart Actif 149 / 148 40% 3 20.08.2027 -
Luís Henrique Inter Actif 146 / 145 40% 1 20.08.2027 -
Alphonso Davies Bayern Munich Actif 161 / 168 40% 4 19.08.2027 -
Manu Koné AS Roma Actif 168 / 166 40% 1 19.08.2027 -
Maximilian Beier Borussia Dortmund Actif 163 / 159 40% 1 19.08.2027 Observer
Tim Lemperle TSG Hoffenheim Actif 146 / 149 40% 9 18.08.2027 -
Nicolò Barella Inter Actif 172 / 168 40% 1 17.08.2027 -
Romano Schmid Frosinone Actif 150 / 144 40% 1 17.08.2027 -
Juma Bah Manchester City Actif 130 / 136 40% 1 17.08.2027 -
Arjan Malić Red Bull Salzburg Actif 126 / 124 40% 1 17.08.2027 -
Takefusa Kubo Real Sociedad Actif 162 / 157 40% 11 15.08.2027 -
Giannis Konstantelias Borussia Dortmund Actif 152 / 147 40% 5 15.08.2027 -
Karim Adeyemi Barcelona Actif 157 / 158 40% 9 15.08.2027 -
Ez Abde Betis Actif 154 / 157 40% 11 14.08.2027 -
Oihan Sancet Eintracht Frankfurt Actif 164 / 166 40% 6 14.08.2027 -
Khvicha Kvaratskhelia Inter Actif 177 / 167 40% 2 14.08.2027 -
Noël Aséko Eintracht Frankfurt Refusé 132 / 137 72% 2 14.08.2027 Refuser
Keita Kosugi Eintracht Frankfurt Actif 120 / 132 40% 1 14.08.2027 -
Davide Bartesaghi AC Milan Actif 135 / 141 40% 1 14.08.2027 -
Halam Loboa Independiente Medellin Actif 113 / 124 40% 1 13.08.2027 -
Fodé Sylla Sion Actif 113 / 122 40% 1 13.08.2027 -
Álex Baena Atlético Madrid Actif 169 / 165 40% 13 11.08.2027 -
Tuerto Sevilla Actif 160 / 154 40% 2 10.08.2027 -
Mason Mount Manchester United Actif 154 / 157 40% 2 09.08.2027 -
Jaydee Canvot Liverpool Actif 137 / 140 40% 3 08.08.2027 -
Enzo Cardozo Virtus Entella Actif 111 / 119 40% 2 08.08.2027 -
Jofre Torrents Ajax Actif 122 / 135 40% 4 08.08.2027 -
Jobe Bellingham Borussia Dortmund Actif 138 / 150 40% 6 07.08.2027 -
Illaijh de Ruijter ADO Den Haag Actif 119 / 125 40% 5 07.08.2027 -
Tiago Freitas Benfica Actif 120 / 122 40% 2 06.08.2027 -
Ollie Scarles Chelsea Actif 129 / 137 40% 6 04.08.2027 -
Anton Stach Leeds United Actif 158 / 151 40% 4 03.08.2027 -
Leon Goretzka Aston Villa Perdu 152 / 157 40% 8 03.08.2027 -
Maeson King Blackpool Actif 109 / 119 40% 3 03.08.2027 -
Kang-In Lee Atlético Madrid Actif 168 / 159 40% 1 03.08.2027 -
Leonardo Mendicino Bari Actif 119 / 124 40% 1 03.08.2027 -
Caleb Yirenkyi Coventry City Actif 135 / 147 40% 4 01.08.2027 -
Finn Jeltsch VfB Stuttgart Actif 133 / 147 40% 2 01.08.2027 -
Lucas Jetten Cambuur Actif 120 / 121 40% 3 01.08.2027 -
Jorrel Hato Chelsea Actif 145 / 154 40% 4 31.07.2027 -
Givairo Read Feyenoord Actif 149 / 150 40% 7 28.07.2027 -
Héctor Fort Real Sociedad Actif 141 / 142 40% 9 28.07.2027 -
Jonathan De Irastorza Levante Actif 129 / 129 40% 1 27.07.2027 -
Kees Smit AZ Actif 145 / 149 40% 3 26.07.2027 -
Izan Merino Málaga Actif 126 / 131 40% 4 26.07.2027 -
Ismaël Baouf Cambuur Actif 124 / 126 40% 4 25.07.2027 -
Sascha Britschgi Catanzaro Actif 124 / 126 40% 3 25.07.2027 -
Julian Brandt Ajax Perdu 157 / 151 40% 1 21.07.2027 -
Christos Mouzakitis Hull City Actif 136 / 140 40% 5 19.07.2027 -
Louis Leroux FC Nantes Actif 131 / 132 40% 4 19.07.2027 -
Karim Coulibaly RC Strasbourg Actif 124 / 130 40% 3 19.07.2027 -
Hugo Ekitiké Liverpool Actif 173 / 164 40% 12 13.07.2027 -
John McGinn Aston Villa Perdu 158 / 149 40% 1 13.07.2027 -
Kevin Schade Brentford Actif 154 / 154 40% 21 12.07.2027 -
Elijah Dijkstra AZ Actif 130 / 133 40% 8 10.07.2027 -
Thomas Alderweireld Dijon Actif 137 / 138 40% 2 09.07.2027 -
Samuele di Benedetto Zurich Actif 120 / 121 40% 3 08.07.2027 -
John McGinn Aston Villa Perdu 147 / 151 40% 1 29.06.2027 -
Solly March Brighton Actif 151 / 152 40% 2 28.06.2027 -
Julian Brandt Ajax Perdu 153 / 148 40% 13 22.06.2027 -
Noah Nartey Olympique Lyonnais Actif 137 / 142 40% 1 22.06.2027 -
Đorđe Petrović Bournemouth Actif 148 / 150 40% 1 04.06.2027 -
Leo Román Deportivo La Coruña Perdu 152 / 148 40% 1 04.06.2027 -
Kostantis Tzolakis Hull City Actif 145 / 144 40% 1 04.06.2027 Plus d'infos
Max Rosenfelder SC Freiburg Actif 142 / 132 72% 1 02.06.2027 Approuver
Woo-Yeong Jeong Union Berlin Perdu 128 / 138 72% 1 01.06.2027 -
Kevin Fulham Actif 152 / 150 40% 1 31.05.2027 -
Igor Jesus Nottingham Forest Actif 150 / 144 40% 13 29.05.2027 -
Thulani Billiat Utrecht Actif 144 / 136 40% 10 29.05.2027 -
Jorge Pascual Granada Actif 131 / 136 40% 5 29.05.2027 -
Fábio Silva Borussia Dortmund Actif 149 / 143 40% 15 28.05.2027 -
Georges Mikautadze FC Augsburg Actif 151 / 155 40% 21 27.05.2027 -
Kenan Yıldız Juventus Actif 164 / 166 40% 3 27.05.2027 Observer
Kai Havertz Arsenal Actif 166 / 160 40% 21 26.05.2027 -
Tani Oluwaseyi Villarreal Actif 147 / 143 40% 8 26.05.2027 -
Maximilian Beier Borussia Dortmund Perdu 156 / 156 40% 14 25.05.2027 Observer
Pau Víctor Estrela da Amadora Actif 143 / 141 40% 12 25.05.2027 -
Benjamin Šeško Manchester United Actif 151 / 156 40% 6 22.05.2027 -
Ferran Torres Paris Saint-Germain Actif 166 / 165 40% 9 21.05.2027 -
Rafael Leão Galatasaray Actif 161 / 162 40% 9 20.05.2027 -
Christantus Uche Getafe Actif 136 / 135 40% 2 19.05.2027 -
Roberto Fernández Braga Actif 145 / 140 40% 7 19.05.2027 -
Dávid Strelec Middlesbrough Actif 145 / 138 40% 1 19.05.2027 -
Yusi Alavés Actif 126 / 131 40% 1 19.05.2027 -
Liam Delap Nottingham Forest Actif 150 / 144 40% 5 16.05.2027 -
Isaac Romero Sevilla Actif 144 / 140 40% 4 13.05.2027 -
Andrés Martín Racing Santander Actif 140 / 135 40% 6 12.05.2027 -
Matheus Cunha Manchester United Actif 155 / 156 40% 4 11.05.2027 -
Brennan Johnson Everton Actif 151 / 147 40% 9 10.05.2027 -
Hugo Duro Valencia Actif 141 / 142 40% 3 10.05.2027 -
Mathys Tel Stade Rennais Actif 149 / 144 40% 6 02.05.2027 -
João Simões Sporting CP Actif 130 / 137 40% 1 23.04.2027 -
Alpha Touré FC Metz Actif 117 / 121 40% 1 14.04.2027 -
Cody Gakpo Liverpool Actif 164 / 157 40% 7 06.04.2027 -
Iliman N'Diaye Everton Actif 158 / 155 40% 9 31.03.2027 -
Antoine Semenyo Manchester City Actif 167 / 159 40% 4 31.03.2027 -
Gabriel Martinelli Arsenal Actif 159 / 161 40% 4 27.03.2027 -
Bradley Barcola Liverpool Actif 159 / 164 40% 14 25.03.2027 -
Dango Ouattara Brentford Actif 149 / 142 40% 5 21.03.2027 Observer
Rayan Cherki Manchester City Actif 170 / 162 40% 14 20.03.2027 -
Rodrygo Real Madrid Actif 170 / 165 40% 13 13.03.2027 -
Yussif Saidu Zaragoza Actif 128 / 126 40% 2 08.03.2027 -
Joaquin Seys Club Brugge Actif 131 / 128 40% 1 07.03.2027 -
Nicolas Jackson Aston Villa Actif 144 / 148 40% 2 28.02.2027 -
Benedict Hollerbach Mainz 05 Actif 129 / 141 40% 4 24.02.2027 -
Rodrigo Muniz Fulham Actif 142 / 140 40% 2 22.02.2027 -
Tim Drexler Red Bull Salzburg Actif 121 / 129 40% 2 21.02.2027 -
Mohammed Kudus Tottenham Actif 158 / 159 40% 3 20.02.2027 -
Georginio Rutter Manchester City Actif 152 / 145 40% 3 16.02.2027 -
Didier Robert FC Augsburg Actif 155 / 154 40% 11 09.02.2027 -
Rômulo RB Leipzig Actif 150 / 144 40% 1 08.02.2027 -
Julián Álvarez Atlético Madrid Actif 178 / 170 40% 9 07.02.2027 -
George Hirst Stoke City Actif 130 / 135 40% 1 07.02.2027 -
Thijmen Blokzijl Groningen Actif 125 / 127 40% 1 07.02.2027 -
Josha Vagnoman VfB Stuttgart Actif 133 / 135 72% 1 11.01.2027 Approuver
Fabian Rieder FC Augsburg Actif 128 / 136 72% 1 03.01.2027 Approuver
Adnan Carrasco FC Nantes Négociation 151 / 156 64% 1 01.01.2027 Approuver
Brahim Díaz Real Madrid Actif 148 / 146 40% 4 31.12.2026 -
Ismaïla Sarr Crystal Palace Actif 152 / 148 40% 1 31.12.2026 -
Christoph Baumgartner RB Leipzig Actif 153 / 150 40% 4 26.12.2026 -
Raphinha Barcelona Actif 178 / 178 40% 7 24.12.2026 -
Yeremay Deportivo La Coruña Actif 149 / 146 40% 3 22.12.2026 -
Reiss Nelson VfL Wolfsburg Actif 153 / 145 40% 2 21.12.2026 -
Tyler Adams Bournemouth Actif 158 / 151 40% 1 17.12.2026 -
Maxence Lacroix Chelsea Actif 154 / 146 40% 1 17.12.2026 -
Nico Schlotterbeck Borussia Dortmund Actif 169 / 163 40% 1 17.12.2026 -
Achraf Hakimi Paris Saint-Germain Actif 181 / 178 40% 1 15.12.2026 -
Pedri Barcelona Actif 178 / 176 40% 5 12.12.2026 -
Gabri Veiga FC Augsburg Actif 142 / 145 40% 6 12.12.2026 -
Osame Sahraoui LOSC Lille Actif 139 / 138 40% 2 09.12.2026 -
Karim Konaté Red Bull Salzburg Actif 132 / 141 40% 2 01.12.2026 -
Bryan Mbeumo Manchester United Actif 157 / 152 40% 4 27.11.2026 -
Eduardo Camavinga Real Madrid Actif 167 / 164 40% 4 22.11.2026 -
Angelo Stiller VfB Stuttgart Actif 149 / 148 40% 1 21.11.2026 -
Joshua Kimmich Bayern Munich Actif 170 / 173 40% 2 19.11.2026 -
Anthony Gordon Barcelona Actif 169 / 161 40% 1 10.11.2026 -
Frenkie de Jong Barcelona Actif 160 / 168 40% 3 04.11.2026 -
Victor Osimhen RB Leipzig Actif 162 / 155 40% 6 02.11.2026 -
Rodolfo Arteaga Liverpool Actif 159 / 159 40% 5 02.11.2026 -
Randal Kolo Muani Juventus Actif 152 / 149 40% 1 02.11.2026 -
Ángel Correa River Plate Actif 138 / 140 40% 1 29.10.2026 -
Michael Olise Bayern Munich Actif 176 / 178 40% 4 22.10.2026 -
James Maddison Tottenham Actif 157 / 150 40% 1 19.10.2026 -
Boubacar Kamara Aston Villa Actif 167 / 159 40% 1 18.10.2026 -
David Raum RB Leipzig Actif 158 / 152 40% 1 15.10.2026 -
Vinícius Júnior Real Madrid Actif 176 / 170 40% 5 14.10.2026 -
Xavi Simons Tottenham Actif 152 / 156 40% 1 12.10.2026 -
Julian Palacios Feyenoord Actif 145 / 150 40% 1 10.10.2026 -
Jules Koundé Barcelona Actif 166 / 155 40% 1 10.10.2026 -
Aleksandar Pavlović Bayern Munich Actif 158 / 158 40% 1 01.10.2026 -
Jérémy Doku Manchester City Actif 163 / 164 40% 3 24.09.2026 -
Yuri Alberto Corinthians Actif 153 / 133 40% 1 24.09.2026 -
Morgan Rogers Chelsea Actif 152 / 157 40% 1 18.09.2026 -
Taty Castellanos West Ham United Actif 145 / 144 40% 1 16.09.2026 -
Joško Gvardiol Manchester City Actif 155 / 161 40% 1 15.09.2026 -
Fisnik Asllani TSG Hoffenheim Actif 134 / 139 40% 3 12.09.2026 -
Enzo Fernández Manchester City Actif 168 / 169 40% 2 11.09.2026 -
Carlos Álvarez Club America Actif 145 / 141 40% 1 09.09.2026 -
Jonathan Dubasin Osasuna Actif 140 / 141 40% 1 07.09.2026 -
Gonzalo Fulham Actif 134 / 141 40% 1 06.09.2026 -
Gavin Bazunu Southampton Actif 114 / 123 40% 1 03.08.2026 -
Jude Bellingham Real Madrid Actif 170 / 174 40% 1 01.08.2026 -